Time,TemperatureF,DewpointF,PressureIn,WindDirection,WindDirectionDegrees,WindSpeedMPH,WindSpeedGustMPH,Humidity,HourlyPrecipIn,Conditions,Clouds,dailyrainin,SoftwareType,DateUTC
2013-08-08 00:11:00,77.0,70.0,29.80,SW,234,0.0,3.0,78,0.00,,,0.00,,2013-08-08 04:11:00,
2013-08-08 00:33:00,76.0,69.0,29.80,SW,217,0.0,0.0,79,0.00,,,0.00,,2013-08-08 04:33:00,
2013-08-08 01:11:00,75.0,69.0,29.81,SSW,202,0.0,0.0,82,0.00,,,0.00,,2013-08-08 05:11:00,
2013-08-08 01:33:00,75.0,70.0,29.81,SSW,202,0.0,0.0,84,0.00,,,0.00,,2013-08-08 05:33:00,
2013-08-08 01:43:00,74.0,69.0,29.81,SSW,202,0.0,0.0,84,0.00,,,0.00,,2013-08-08 05:43:00,
2013-08-08 01:52:00,75.0,70.0,29.81,SSW,202,0.0,0.0,84,0.00,,,0.00,,2013-08-08 05:52:00,
2013-08-08 02:01:00,74.0,69.0,29.81,SSW,202,0.0,0.0,84,0.00,,,0.00,,2013-08-08 06:01:00,
2013-08-08 02:12:00,74.0,69.0,29.81,SSW,202,0.0,0.0,85,0.00,,,0.00,,2013-08-08 06:12:00,
2013-08-08 02:22:00,74.0,69.0,29.81,SSW,202,0.0,0.0,85,0.00,,,0.00,,2013-08-08 06:22:00,
2013-08-08 02:43:00,74.0,70.0,29.80,SSW,202,0.0,0.0,87,0.00,,,0.00,,2013-08-08 06:43:00,
2013-08-08 02:52:00,74.0,70.0,29.80,SSW,202,0.0,0.0,87,0.00,,,0.00,,2013-08-08 06:52:00,
2013-08-08 03:02:00,74.0,70.0,29.80,SSW,202,0.0,0.0,87,0.00,,,0.00,,2013-08-08 07:02:00,
2013-08-08 03:12:00,74.0,70.0,29.80,SSW,212,3.0,5.0,88,0.00,,,0.00,,2013-08-08 07:12:00,
2013-08-08 03:32:00,73.0,70.0,29.81,SSW,195,0.0,0.0,90,0.00,,,0.00,,2013-08-08 07:32:00,
2013-08-08 03:43:00,73.0,70.0,29.81,SSW,195,0.0,0.0,90,0.00,,,0.00,,2013-08-08 07:43:00,
2013-08-08 03:53:00,73.0,70.0,29.80,SSW,195,0.0,0.0,90,0.00,,,0.00,,2013-08-08 07:53:00,
2013-08-08 04:02:00,73.0,71.0,29.80,SSW,195,0.0,0.0,92,0.00,,,0.00,,2013-08-08 08:02:00,
2013-08-08 04:11:00,72.0,70.0,29.80,SSW,195,0.0,0.0,92,0.00,,,0.00,,2013-08-08 08:11:00,
2013-08-08 04:22:00,72.0,70.0,29.80,SSW,195,0.0,0.0,92,0.00,,,0.00,,2013-08-08 08:22:00,
2013-08-08 04:32:00,72.0,70.0,29.80,SSW,195,0.0,0.0,92,0.00,,,0.00,,2013-08-08 08:32:00,
2013-08-08 04:43:00,72.0,70.0,29.79,SSW,195,0.0,0.0,93,0.00,,,0.00,,2013-08-08 08:43:00,
2013-08-08 04:53:00,72.0,70.0,29.80,SSW,195,0.0,0.0,93,0.00,,,0.00,,2013-08-08 08:53:00,
2013-08-08 05:02:00,72.0,70.0,29.79,SSW,195,0.0,0.0,93,0.00,,,0.00,,2013-08-08 09:02:00,
2013-08-08 05:12:00,72.0,70.0,29.79,SSW,195,0.0,0.0,93,0.00,,,0.00,,2013-08-08 09:12:00,
2013-08-08 05:22:00,72.0,70.0,29.80,SSW,195,0.0,0.0,93,0.00,,,0.00,,2013-08-08 09:22:00,
2013-08-08 05:32:00,72.0,70.0,29.79,SSW,197,0.0,2.0,95,0.00,,,0.00,,2013-08-08 09:32:00,
2013-08-08 05:43:00,72.0,70.0,29.80,SSW,205,0.0,0.0,95,0.00,,,0.00,,2013-08-08 09:43:00,
2013-08-08 05:53:00,72.0,70.0,29.79,SSW,205,0.0,0.0,95,0.00,,,0.00,,2013-08-08 09:53:00,
2013-08-08 06:01:00,72.0,70.0,29.79,SSW,205,0.0,0.0,95,0.00,,,0.00,,2013-08-08 10:01:00,
2013-08-08 06:43:00,71.0,69.0,29.79,SSE,160,0.0,0.0,95,0.00,,,0.00,,2013-08-08 10:43:00,
2013-08-08 06:52:00,72.0,70.0,29.79,SSE,160,0.0,0.0,95,0.00,,,0.00,,2013-08-08 10:52:00,
2013-08-08 07:02:00,72.0,70.0,29.79,SSE,160,0.0,0.0,95,0.00,,,0.00,,2013-08-08 11:02:00,
2013-08-08 07:11:00,72.0,70.0,29.80,SSE,160,0.0,0.0,95,0.00,,,0.00,,2013-08-08 11:11:00,
2013-08-08 07:22:00,71.0,69.0,29.80,SSE,160,0.0,0.0,95,0.00,,,0.00,,2013-08-08 11:22:00,
2013-08-08 07:32:00,72.0,70.0,29.80,SSE,160,0.0,0.0,95,0.00,,,0.00,,2013-08-08 11:32:00,
2013-08-08 07:43:00,72.0,70.0,29.80,SSE,160,0.0,0.0,95,0.00,,,0.00,,2013-08-08 11:43:00,
2013-08-08 07:52:00,72.0,70.0,29.80,SSE,160,0.0,0.0,95,0.00,,,0.00,,2013-08-08 11:52:00,
2013-08-08 08:11:00,73.0,71.0,29.80,SSE,160,0.0,0.0,95,0.00,,,0.00,,2013-08-08 12:11:00,
2013-08-08 08:22:00,73.0,71.0,29.80,South,189,1.0,5.0,95,0.00,,,0.00,,2013-08-08 12:22:00,
2013-08-08 08:32:00,73.0,71.0,29.80,South,187,2.0,5.0,95,0.00,,,0.00,,2013-08-08 12:32:00,
2013-08-08 08:43:00,74.0,72.0,29.80,SW,222,3.0,5.0,95,0.00,,,0.00,,2013-08-08 12:43:00,
2013-08-08 08:52:00,74.0,72.0,29.80,SSW,192,0.0,3.0,95,0.00,,,0.00,,2013-08-08 12:52:00,
2013-08-08 09:01:00,74.0,72.0,29.80,SW,220,1.0,5.0,95,0.00,,,0.00,,2013-08-08 13:01:00,
2013-08-08 09:11:00,75.0,73.0,29.80,SW,222,0.0,0.0,95,0.00,,,0.00,,2013-08-08 13:11:00,
2013-08-08 09:22:00,75.0,73.0,29.80,WSW,244,0.0,3.0,95,0.00,,,0.00,,2013-08-08 13:22:00,
2013-08-08 09:32:00,75.0,73.0,29.80,SW,222,1.0,0.0,95,0.00,,,0.00,,2013-08-08 13:32:00,
2013-08-08 09:43:00,76.0,74.0,29.81,SW,222,0.0,0.0,95,0.00,,,0.00,,2013-08-08 13:43:00,
2013-08-08 09:52:00,77.0,75.0,29.81,SW,222,0.0,0.0,95,0.00,,,0.00,,2013-08-08 13:52:00,
2013-08-08 10:02:00,77.0,75.0,29.81,SW,222,0.0,0.0,95,0.00,,,0.00,,2013-08-08 14:02:00,
2013-08-08 10:22:00,79.0,76.0,29.82,SSW,212,1.0,3.0,91,0.00,,,0.00,,2013-08-08 14:22:00,
2013-08-08 10:32:00,79.0,75.0,29.82,SSW,210,0.0,0.0,88,0.00,,,0.00,,2013-08-08 14:32:00,
2013-08-08 10:43:00,79.0,75.0,29.82,SSW,210,0.0,0.0,87,0.00,,,0.00,,2013-08-08 14:43:00,
2013-08-08 10:53:00,80.0,75.0,29.83,SSW,210,0.0,0.0,84,0.00,,,0.00,,2013-08-08 14:53:00,
2013-08-08 11:02:00,80.0,74.0,29.83,SSW,205,0.0,5.0,81,0.00,,,0.00,,2013-08-08 15:02:00,
2013-08-08 11:11:00,81.0,73.0,29.83,WNW,284,0.0,0.0,78,0.00,,,0.00,,2013-08-08 15:11:00,
2013-08-08 11:22:00,82.0,73.0,29.83,WSW,246,1.0,0.0,75,0.00,,,0.00,,2013-08-08 15:22:00,
2013-08-08 11:43:00,82.0,71.0,29.83,West,275,1.0,0.0,69,0.00,,,0.00,,2013-08-08 15:43:00,
2013-08-08 11:53:00,81.0,70.0,29.83,West,275,0.0,0.0,69,0.00,,,0.00,,2013-08-08 15:53:00,
2013-08-08 12:02:00,83.0,71.0,29.82,SSW,193,0.0,0.0,67,0.00,,,0.00,,2013-08-08 16:02:00,
2013-08-08 12:11:00,83.0,70.0,29.82,North,0,0.0,0.0,66,0.00,,,0.00,,2013-08-08 16:11:00,
2013-08-08 12:22:00,83.0,69.0,29.82,NW,325,0.0,0.0,63,0.00,,,0.00,,2013-08-08 16:22:00,
2013-08-08 12:32:00,81.0,68.0,29.83,NNW,334,6.0,8.0,65,0.04,,,0.04,,2013-08-08 16:32:00,
2013-08-08 12:42:00,79.0,68.0,29.82,NNW,346,0.0,0.0,69,0.19,,,0.19,,2013-08-08 16:42:00,
2013-08-08 12:52:00,78.0,69.0,29.82,NNW,346,0.0,0.0,75,0.19,,,0.19,,2013-08-08 16:52:00,
2013-08-08 13:11:00,80.0,72.0,29.81,NNW,342,0.0,0.0,78,0.19,,,0.19,,2013-08-08 17:11:00,
2013-08-08 13:21:00,80.0,72.0,29.81,NNW,342,0.0,0.0,78,0.19,,,0.19,,2013-08-08 17:21:00,
2013-08-08 13:32:00,80.0,73.0,29.81,North,10,1.0,6.0,79,0.15,,,0.19,,2013-08-08 17:32:00,
2013-08-08 13:43:00,80.0,73.0,29.81,SSW,194,5.0,6.0,79,0.00,,,0.19,,2013-08-08 17:43:00,
2013-08-08 13:52:00,80.0,74.0,29.81,East,101,5.0,8.0,81,0.00,,,0.19,,2013-08-08 17:52:00,
2013-08-08 14:11:00,80.0,74.0,29.80,ESE,102,1.0,6.0,81,0.00,,,0.19,,2013-08-08 18:11:00,
2013-08-08 14:22:00,80.0,74.0,29.80,SSW,206,3.0,6.0,81,0.00,,,0.19,,2013-08-08 18:22:00,
2013-08-08 14:32:00,80.0,73.0,29.80,SSW,209,6.0,8.0,79,0.02,,,0.21,,2013-08-08 18:32:00,
2013-08-08 14:43:00,79.0,74.0,29.80,SW,217,5.0,5.0,84,0.14,,,0.33,,2013-08-08 18:43:00,
2013-08-08 14:52:00,78.0,74.0,29.80,South,190,0.0,5.0,87,0.14,,,0.33,,2013-08-08 18:52:00,
2013-08-08 15:22:00,79.0,76.0,29.79,SSE,152,0.0,0.0,90,0.14,,,0.33,,2013-08-08 19:22:00,
2013-08-08 15:32:00,79.0,76.0,29.79,SSE,160,0.0,5.0,90,0.12,,,0.33,,2013-08-08 19:32:00,
2013-08-08 15:43:00,80.0,76.0,29.79,SSE,157,0.0,0.0,88,0.01,,,0.34,,2013-08-08 19:43:00,
2013-08-08 16:02:00,79.0,76.0,29.78,SSE,157,0.0,0.0,90,0.10,,,0.43,,2013-08-08 20:02:00,
2013-08-08 16:11:00,78.0,75.0,29.78,SSE,157,0.0,0.0,92,0.12,,,0.45,,2013-08-08 20:11:00,
2013-08-08 16:22:00,79.0,76.0,29.78,SSE,157,0.0,0.0,92,0.12,,,0.45,,2013-08-08 20:22:00,
2013-08-08 16:32:00,79.0,76.0,29.78,SSE,157,0.0,0.0,92,0.12,,,0.45,,2013-08-08 20:32:00,
2013-08-08 16:42:00,79.0,76.0,29.77,SSE,157,0.0,0.0,92,0.11,,,0.45,,2013-08-08 20:42:00,
2013-08-08 17:01:00,79.0,76.0,29.78,SSE,157,0.0,0.0,92,0.24,,,0.67,,2013-08-08 21:01:00,
2013-08-08 17:14:00,77.0,74.0,29.77,SW,232,6.0,8.0,92,0.48,,,0.93,,2013-08-08 21:14:00,
2013-08-08 17:25:00,75.0,73.0,29.77,SW,218,5.0,6.0,95,0.51,,,0.96,,2013-08-08 21:25:00,
2013-08-08 18:47:00,73.0,71.0,29.78,SW,232,0.0,0.0,95,0.03,,,1.13,,2013-08-08 22:47:00,
2013-08-08 18:56:00,73.0,71.0,29.78,SW,232,0.0,0.0,95,0.03,,,1.13,,2013-08-08 22:56:00,
2013-08-08 19:04:00,74.0,72.0,29.78,SW,232,0.0,0.0,95,0.03,,,1.13,,2013-08-08 23:04:00,
2013-08-08 19:14:00,74.0,72.0,29.78,SW,232,0.0,0.0,95,0.02,,,1.13,,2013-08-08 23:14:00,
2013-08-08 19:24:00,75.0,73.0,29.76,SW,223,0.0,3.0,95,0.01,,,1.13,,2013-08-08 23:24:00,
2013-08-08 19:54:00,76.0,74.0,29.76,NE,45,0.0,0.0,95,0.00,,,1.13,,2013-08-08 23:54:00,
2013-08-08 20:05:00,76.0,74.0,29.76,NE,45,0.0,0.0,95,0.00,,,1.13,,2013-08-09 00:05:00,
2013-08-08 20:14:00,75.0,73.0,29.77,NNW,338,1.0,5.0,95,0.00,,,1.13,,2013-08-09 00:14:00,
2013-08-08 20:24:00,75.0,73.0,29.77,NNW,343,0.0,0.0,95,0.00,,,1.13,,2013-08-09 00:24:00,
2013-08-08 20:45:00,74.0,72.0,29.77,NNW,343,0.0,0.0,95,0.00,,,1.13,,2013-08-09 00:45:00,
2013-08-08 20:53:00,74.0,72.0,29.77,NNE,27,1.0,5.0,95,0.00,,,1.13,,2013-08-09 00:53:00,
2013-08-08 21:03:00,74.0,72.0,29.77,NNE,25,2.0,6.0,95,0.00,,,1.13,,2013-08-09 01:03:00,
2013-08-08 21:15:00,74.0,72.0,29.77,NE,40,0.0,0.0,95,0.00,,,1.13,,2013-08-09 01:15:00,
2013-08-08 21:25:00,74.0,72.0,29.78,NE,40,0.0,0.0,95,0.00,,,1.13,,2013-08-09 01:25:00,
2013-08-08 21:35:00,73.0,71.0,29.78,NE,40,0.0,0.0,95,0.00,,,1.13,,2013-08-09 01:35:00,
2013-08-08 22:14:00,73.0,71.0,29.78,North,0,0.0,3.0,95,0.00,,,1.13,,2013-08-09 02:14:00,
2013-08-08 23:34:00,70.0,68.0,29.83,North,349,0.0,0.0,95,1.37,,,2.65,,2013-08-09 03:34:00,
2013-08-08 23:45:00,70.0,68.0,29.83,North,349,0.0,0.0,95,1.24,,,2.72,,2013-08-09 03:45:00,